createdAt,value
2023-05-22T00:01:56.800Z,10.70
2023-05-22T00:04:23.762Z,13.90
2023-05-22T00:06:50.663Z,10.38
2023-05-22T00:09:17.848Z,9.95
2023-05-22T00:11:44.731Z,9.52
2023-05-22T00:14:13.598Z,12.20
2023-05-22T00:16:41.335Z,10.10
2023-05-22T00:19:16.614Z,10.95
2023-05-22T00:21:44.259Z,10.35
2023-05-22T00:24:11.120Z,11.07
2023-05-22T00:26:38.100Z,7.45
2023-05-22T00:29:08.126Z,8.48
2023-05-22T00:31:35.077Z,10.35
2023-05-22T00:34:02.027Z,8.13
2023-05-22T00:36:29.314Z,7.70
2023-05-22T00:38:56.155Z,8.38
2023-05-22T00:41:23.068Z,10.75
2023-05-22T00:43:51.434Z,9.45
2023-05-22T00:46:21.605Z,11.25
2023-05-22T00:48:49.116Z,8.25
2023-05-22T00:51:16.102Z,9.32
2023-05-22T00:53:43.451Z,7.93
2023-05-22T00:56:10.407Z,9.45
2023-05-22T00:58:37.641Z,8.82
2023-05-22T01:01:07.790Z,11.32
2023-05-22T01:03:37.589Z,11.23
2023-05-22T01:06:04.962Z,8.60
2023-05-22T01:08:31.773Z,10.48
2023-05-22T01:11:08.280Z,8.52
2023-05-22T01:13:50.679Z,10.98
2023-05-22T01:16:29.947Z,9.07
2023-05-22T01:19:16.592Z,13.57
2023-05-22T01:21:52.145Z,11.63
2023-05-22T01:25:01.004Z,9.32
2023-05-22T01:30:30.206Z,10.90
2023-05-22T01:32:59.337Z,12.32
2023-05-22T01:35:28.306Z,12.25
2023-05-22T01:37:57.197Z,10.63
2023-05-22T01:40:25.720Z,9.65
2023-05-22T01:42:52.746Z,9.00
2023-05-22T01:45:21.621Z,14.18
2023-05-22T01:47:48.837Z,9.50
2023-05-22T01:50:18.165Z,11.10
2023-05-22T01:53:09.941Z,12.80
2023-05-22T01:55:50.523Z,10.65
2023-05-22T01:58:23.264Z,9.52
2023-05-22T02:00:53.950Z,15.45
2023-05-22T02:03:25.147Z,12.30
2023-05-22T02:05:55.340Z,10.85
2023-05-22T02:08:22.997Z,9.27
2023-05-22T02:10:52.284Z,9.98
2023-05-22T02:13:21.686Z,13.20
2023-05-22T02:15:49.200Z,12.57
2023-05-22T02:18:16.451Z,12.07
2023-05-22T02:20:43.911Z,10.30
2023-05-22T02:23:11.021Z,10.90
2023-05-22T02:25:37.925Z,10.25
2023-05-22T02:28:04.844Z,11.23
2023-05-22T02:30:31.722Z,10.93
2023-05-22T02:33:00.436Z,10.80
2023-05-22T02:35:27.237Z,8.98
2023-05-22T02:37:54.212Z,10.02
2023-05-22T02:40:21.192Z,9.75
2023-05-22T02:42:48.046Z,10.25
2023-05-22T02:45:15.432Z,11.50
2023-05-22T02:47:42.264Z,13.00
2023-05-22T02:50:09.433Z,12.30
2023-05-22T02:52:37.220Z,13.00
2023-05-22T02:55:04.661Z,10.05
2023-05-22T02:57:31.925Z,12.10
2023-05-22T02:59:59.268Z,11.15
2023-05-22T03:02:28.498Z,11.52
2023-05-22T03:04:59.025Z,14.18
2023-05-22T03:07:26.511Z,13.38
2023-05-22T03:09:53.478Z,12.93
2023-05-22T03:12:21.190Z,11.95
2023-05-22T03:14:47.895Z,15.40
2023-05-22T03:17:14.657Z,18.00
2023-05-22T03:19:41.904Z,15.57
2023-05-22T03:22:08.758Z,14.65
2023-05-22T03:24:35.522Z,15.50
2023-05-22T03:27:02.828Z,16.15
2023-05-22T03:29:39.430Z,13.18
2023-05-22T03:32:06.526Z,10.90
2023-05-22T03:34:33.371Z,12.88
2023-05-22T03:37:01.622Z,15.80
2023-05-22T03:39:28.533Z,11.48
2023-05-22T03:42:14.079Z,13.65
2023-05-22T03:44:41.039Z,13.93
2023-05-22T03:47:07.934Z,12.60
2023-05-22T03:49:34.729Z,14.57
2023-05-22T03:52:01.511Z,14.93
2023-05-22T03:54:28.253Z,16.40
2023-05-22T03:56:56.581Z,14.68
2023-05-22T03:59:23.436Z,15.07
2023-05-22T04:01:50.997Z,14.25
2023-05-22T04:04:17.949Z,12.98
2023-05-22T04:06:45.071Z,13.55
2023-05-22T04:09:13.462Z,12.85
2023-05-22T04:11:40.270Z,15.60
2023-05-22T04:14:07.195Z,14.40
2023-05-22T04:16:34.244Z,12.13
2023-05-22T04:19:04.421Z,16.33
2023-05-22T04:21:34.470Z,13.25
2023-05-22T04:24:07.344Z,12.75
2023-05-22T04:26:34.574Z,14.50
2023-05-22T04:29:02.398Z,11.43
2023-05-22T04:31:29.703Z,12.50
2023-05-22T04:33:56.627Z,13.60
2023-05-22T04:36:26.084Z,11.68
2023-05-22T04:38:54.145Z,10.45
2023-05-22T04:41:26.828Z,12.23
2023-05-22T04:43:54.148Z,12.50
2023-05-22T04:46:21.302Z,15.38
2023-05-22T04:48:48.162Z,11.45
2023-05-22T04:51:15.961Z,9.85
2023-05-22T04:53:43.063Z,11.75
2023-05-22T04:56:09.913Z,11.23
2023-05-22T04:58:38.363Z,12.57
2023-05-22T05:01:06.018Z,14.23
2023-05-22T05:03:34.302Z,10.25
2023-05-22T05:06:01.390Z,9.10
2023-05-22T05:08:28.202Z,12.43
2023-05-22T05:10:55.072Z,10.30
2023-05-22T05:13:22.955Z,10.45
2023-05-22T05:15:49.780Z,13.57
2023-05-22T05:18:17.249Z,11.00
2023-05-22T05:20:44.155Z,10.23
2023-05-22T05:23:11.382Z,12.25
2023-05-22T05:25:38.807Z,12.00
2023-05-22T05:28:10.899Z,12.40
2023-05-22T05:30:40.222Z,13.63
2023-05-22T05:33:22.287Z,10.32
2023-05-22T05:36:08.442Z,10.15
2023-05-22T05:38:36.018Z,12.00
2023-05-22T05:41:02.777Z,11.73
2023-05-22T05:43:30.070Z,10.38
2023-05-22T05:46:02.370Z,10.82
2023-05-22T05:48:29.388Z,12.10
2023-05-22T05:50:57.349Z,8.85
2023-05-22T05:53:25.049Z,14.57
2023-05-22T05:55:57.955Z,14.60
2023-05-22T05:58:26.066Z,11.25
2023-05-22T06:01:11.885Z,11.40
2023-05-22T06:03:39.295Z,10.95
2023-05-22T06:06:26.253Z,11.40
2023-05-22T06:09:16.428Z,10.85
2023-05-22T06:12:02.025Z,11.10
2023-05-22T06:14:29.170Z,10.90
2023-05-22T06:16:56.423Z,11.98
2023-05-22T06:19:23.489Z,10.48
2023-05-22T06:21:52.021Z,16.02
2023-05-22T06:24:20.255Z,13.30
2023-05-22T06:26:47.031Z,12.38
2023-05-22T06:29:14.907Z,12.68
2023-05-22T06:31:41.770Z,11.05
2023-05-22T06:34:09.182Z,11.02
2023-05-22T06:36:36.077Z,11.43
2023-05-22T06:39:03.462Z,10.32
2023-05-22T06:41:48.842Z,11.27
2023-05-22T06:44:15.853Z,10.57
2023-05-22T06:46:42.724Z,10.38
2023-05-22T06:49:14.756Z,8.90
2023-05-22T06:54:14.150Z,11.60
2023-05-22T06:56:46.141Z,11.05
2023-05-22T06:59:17.400Z,11.82
2023-05-22T07:02:04.604Z,12.23
2023-05-22T07:05:03.264Z,10.15
2023-05-22T07:07:36.099Z,9.95
2023-05-22T07:10:03.535Z,14.05
2023-05-22T07:12:30.551Z,10.93
2023-05-22T07:15:00.039Z,10.30
2023-05-22T07:17:27.047Z,11.70
2023-05-22T07:19:55.579Z,9.13
2023-05-22T07:22:22.688Z,15.38
2023-05-22T07:24:49.525Z,12.13
2023-05-22T07:27:18.161Z,12.70
2023-05-22T07:29:47.600Z,14.25
2023-05-22T07:32:14.494Z,11.73
2023-05-22T07:34:42.430Z,10.40
2023-05-22T07:37:12.425Z,11.35
2023-05-22T07:39:39.881Z,12.27
2023-05-22T07:42:07.581Z,11.88
2023-05-22T07:44:41.136Z,12.82
2023-05-22T07:47:09.026Z,14.68
2023-05-22T07:49:36.306Z,12.82
2023-05-22T07:52:03.329Z,12.73
2023-05-22T07:54:30.060Z,11.25
2023-05-22T07:56:57.815Z,13.98
2023-05-22T07:59:27.972Z,12.27
2023-05-22T08:01:58.478Z,13.77
2023-05-22T08:04:26.338Z,13.05
2023-05-22T08:06:53.318Z,10.38
2023-05-22T08:09:21.704Z,10.25
2023-05-22T08:11:48.495Z,9.95
2023-05-22T08:14:15.347Z,11.00
2023-05-22T08:16:42.232Z,11.07
2023-05-22T08:19:09.122Z,8.60
2023-05-22T08:21:37.535Z,12.57
2023-05-22T08:24:04.657Z,12.63
2023-05-22T08:26:33.314Z,14.52
2023-05-22T08:29:00.859Z,10.02
2023-05-22T08:31:31.035Z,10.30
2023-05-22T08:34:02.483Z,9.55
2023-05-22T08:36:34.416Z,12.32
2023-05-22T08:39:02.032Z,11.55
2023-05-22T08:41:29.830Z,8.25
2023-05-22T08:43:57.130Z,10.52
2023-05-22T08:46:29.308Z,10.85
2023-05-22T08:48:59.812Z,8.65
2023-05-22T08:51:33.081Z,10.20
2023-05-22T08:54:01.290Z,7.47
2023-05-22T08:56:29.593Z,8.77
2023-05-22T08:58:58.402Z,8.65
2023-05-22T09:01:25.387Z,8.07
2023-05-22T09:03:52.316Z,13.18
2023-05-22T09:06:19.417Z,10.20
2023-05-22T09:08:46.361Z,11.10
2023-05-22T09:11:13.479Z,6.88
2023-05-22T09:13:41.572Z,8.50
2023-05-22T09:16:13.236Z,6.43
2023-05-22T09:18:41.621Z,7.78
2023-05-22T09:21:21.526Z,10.43
2023-05-22T09:24:01.901Z,7.68
2023-05-22T09:26:29.495Z,6.90
2023-05-22T09:28:59.009Z,8.00
2023-05-22T09:33:54.161Z,8.70
2023-05-22T09:36:22.142Z,8.10
2023-05-22T09:38:49.320Z,11.25
2023-05-22T09:41:26.172Z,10.13
2023-05-22T09:43:52.968Z,9.30
2023-05-22T09:46:19.778Z,9.07
2023-05-22T09:48:51.858Z,9.25
2023-05-22T09:51:24.132Z,8.13
2023-05-22T09:53:52.734Z,7.85
2023-05-22T09:56:34.917Z,8.60
2023-05-22T09:59:09.554Z,9.10
2023-05-22T10:01:39.085Z,9.45
2023-05-22T10:04:10.234Z,8.40
2023-05-22T10:06:37.919Z,7.95
2023-05-22T10:09:12.036Z,9.32
2023-05-22T10:11:39.028Z,8.48
2023-05-22T10:14:07.507Z,7.78
2023-05-22T10:16:38.392Z,7.35
2023-05-22T10:19:07.841Z,7.28
2023-05-22T10:21:36.906Z,8.43
2023-05-22T10:24:06.359Z,6.82
2023-05-22T10:26:33.399Z,9.20
2023-05-22T10:29:07.581Z,8.05
2023-05-22T10:31:46.137Z,6.68
2023-05-22T10:34:49.083Z,7.03
2023-05-22T10:37:25.039Z,8.98
2023-05-22T10:40:00.997Z,6.00
2023-05-22T10:42:32.161Z,4.97
2023-05-22T10:45:00.990Z,7.55
2023-05-22T10:47:27.891Z,5.40
2023-05-22T10:50:09.372Z,5.93
2023-05-22T10:52:37.509Z,5.95
2023-05-22T10:55:09.315Z,3.65
2023-05-22T10:57:40.360Z,6.07
2023-05-22T11:00:12.865Z,3.80
2023-05-22T11:02:42.493Z,7.35
2023-05-22T11:05:20.014Z,5.88
2023-05-22T11:07:47.450Z,4.63
2023-05-22T11:10:14.244Z,5.82
2023-05-22T11:12:41.655Z,8.23
2023-05-22T11:15:09.999Z,5.13
2023-05-22T11:17:39.882Z,5.38
2023-05-22T11:20:13.805Z,5.82
2023-05-22T11:22:49.939Z,3.47
2023-05-22T11:25:18.505Z,6.03
2023-05-22T11:27:47.467Z,4.68
2023-05-22T11:30:15.921Z,5.18
2023-05-22T11:32:46.457Z,6.13
2023-05-22T11:35:21.062Z,4.80
2023-05-22T11:37:49.805Z,4.85
2023-05-22T11:40:21.706Z,3.50
2023-05-22T11:42:48.728Z,8.68
2023-05-22T11:45:16.214Z,4.60
2023-05-22T11:47:43.768Z,4.35
2023-05-22T11:50:12.772Z,4.25
2023-05-22T11:52:41.473Z,5.93
2023-05-22T11:55:09.847Z,4.13
2023-05-22T11:57:37.300Z,7.25
2023-05-22T12:00:09.183Z,5.75
2023-05-22T12:02:39.457Z,4.55
2023-05-22T12:05:06.911Z,5.32
2023-05-22T12:07:34.007Z,5.28
2023-05-22T12:10:01.313Z,7.05
2023-05-22T12:12:28.155Z,5.05
2023-05-22T12:14:54.976Z,7.85
2023-05-22T12:17:23.062Z,6.55
2023-05-22T12:19:49.777Z,3.90
2023-05-22T12:22:16.601Z,6.25
2023-05-22T12:24:48.165Z,6.13
2023-05-22T12:27:15.721Z,4.50
2023-05-22T12:29:43.365Z,6.20
2023-05-22T12:32:12.127Z,5.20
2023-05-22T12:34:46.677Z,6.75
2023-05-22T12:37:25.013Z,5.22
2023-05-22T12:39:56.438Z,5.60
2023-05-22T12:42:23.831Z,6.38
2023-05-22T12:44:53.058Z,4.38
2023-05-22T12:47:19.945Z,7.47
2023-05-22T12:49:46.774Z,7.03
2023-05-22T12:52:13.806Z,6.63
2023-05-22T12:54:40.861Z,5.03
2023-05-22T12:57:07.698Z,4.53
2023-05-22T12:59:34.832Z,4.93
2023-05-22T13:02:03.228Z,5.32
2023-05-22T13:04:30.595Z,4.68
2023-05-22T13:06:57.350Z,6.07
2023-05-22T13:09:24.121Z,4.53
2023-05-22T13:11:50.893Z,6.95
2023-05-22T13:14:17.999Z,6.05
2023-05-22T13:16:45.107Z,7.45
2023-05-22T13:19:12.000Z,6.95
2023-05-22T13:21:38.677Z,6.22
2023-05-22T13:24:05.507Z,5.00
2023-05-22T13:26:32.203Z,6.80
2023-05-22T13:28:59.043Z,3.42
2023-05-22T13:31:26.287Z,5.03
2023-05-22T13:33:53.224Z,6.00
2023-05-22T13:36:20.010Z,9.38
2023-05-22T13:38:46.794Z,5.45
2023-05-22T13:41:15.532Z,4.28
2023-05-22T13:43:42.410Z,5.53
2023-05-22T13:46:09.197Z,4.40
2023-05-22T13:48:36.109Z,7.65
2023-05-22T13:51:03.236Z,4.82
2023-05-22T13:53:30.054Z,4.68
2023-05-22T13:55:56.933Z,6.38
2023-05-22T13:58:23.723Z,5.03
2023-05-22T14:00:50.648Z,4.88
2023-05-22T14:03:18.473Z,4.72
2023-05-22T14:05:45.746Z,4.60
2023-05-22T14:08:12.747Z,5.25
2023-05-22T14:10:39.735Z,5.28
2023-05-22T14:13:06.607Z,7.40
2023-05-22T14:15:33.446Z,7.43
2023-05-22T14:18:01.012Z,5.50
2023-05-22T14:20:28.030Z,4.70
2023-05-22T14:22:57.549Z,6.40
2023-05-22T14:25:26.324Z,5.35
2023-05-22T14:27:53.172Z,5.40
2023-05-22T14:30:20.124Z,5.95
2023-05-22T14:32:47.088Z,5.72
2023-05-22T14:35:13.990Z,5.90
2023-05-22T14:37:40.751Z,6.18
2023-05-22T14:40:08.426Z,5.00
2023-05-22T14:42:35.687Z,7.57
2023-05-22T14:45:04.003Z,6.45
2023-05-22T14:47:30.749Z,4.38
2023-05-22T14:50:06.267Z,5.00
2023-05-22T14:52:46.688Z,5.20
2023-05-22T14:55:13.543Z,9.27
2023-05-22T14:57:40.451Z,6.78
2023-05-22T15:00:09.681Z,5.65
2023-05-22T15:02:37.237Z,5.00
2023-05-22T15:05:04.557Z,7.28
2023-05-22T15:07:43.082Z,6.20
2023-05-22T15:10:11.338Z,6.35
2023-05-22T15:12:38.224Z,5.43
2023-05-22T15:15:05.487Z,6.93
2023-05-22T15:17:32.333Z,6.00
2023-05-22T15:19:59.175Z,5.22
2023-05-22T15:22:25.953Z,7.10
2023-05-22T15:25:06.257Z,4.45
2023-05-22T15:27:37.386Z,5.88
2023-05-22T15:30:05.861Z,7.32
2023-05-22T15:32:33.264Z,4.75
2023-05-22T15:35:00.244Z,5.45
2023-05-22T15:37:28.617Z,5.07
2023-05-22T15:42:23.140Z,6.03
2023-05-22T15:44:50.120Z,4.95
2023-05-22T15:47:16.930Z,4.10
2023-05-22T15:49:43.615Z,4.32
2023-05-22T15:52:10.446Z,6.50
2023-05-22T15:54:37.237Z,7.50
2023-05-22T15:57:04.236Z,10.32
2023-05-22T15:59:31.061Z,8.50
2023-05-22T16:01:57.765Z,9.07
2023-05-22T16:04:24.469Z,5.63
2023-05-22T16:06:51.252Z,6.85
2023-05-22T16:09:19.490Z,9.15
2023-05-22T16:11:46.251Z,7.82
2023-05-22T16:14:13.642Z,5.28
2023-05-22T16:16:41.132Z,7.60
2023-05-22T16:19:08.364Z,7.20
2023-05-22T16:21:35.212Z,6.75
2023-05-22T16:24:02.015Z,7.45
2023-05-22T16:26:29.292Z,7.20
2023-05-22T16:28:56.039Z,9.32
2023-05-22T16:31:22.834Z,6.72
2023-05-22T16:33:49.627Z,6.70
2023-05-22T16:36:16.366Z,6.68
2023-05-22T16:38:43.212Z,5.50
2023-05-22T16:41:09.923Z,8.82
2023-05-22T16:43:38.215Z,4.53
2023-05-22T16:46:04.966Z,6.85
2023-05-22T16:48:31.720Z,5.00
2023-05-22T16:50:58.494Z,4.97
2023-05-22T16:53:25.284Z,7.55
2023-05-22T16:55:52.032Z,6.30
2023-05-22T16:58:19.134Z,7.03
2023-05-22T17:00:46.186Z,4.57
2023-05-22T17:03:14.125Z,4.03
2023-05-22T17:05:41.465Z,5.95
2023-05-22T17:08:08.563Z,5.43
2023-05-22T17:10:35.461Z,5.45
2023-05-22T17:13:02.215Z,4.70
2023-05-22T17:15:29.051Z,6.45
2023-05-22T17:17:55.958Z,5.85
2023-05-22T17:20:25.923Z,5.50
2023-05-22T17:22:52.780Z,5.57
2023-05-22T17:25:19.631Z,3.83
2023-05-22T17:27:46.582Z,6.47
2023-05-22T17:30:13.366Z,9.93
2023-05-22T17:32:40.224Z,4.72
2023-05-22T17:35:07.319Z,4.63
2023-05-22T17:37:34.098Z,4.35
2023-05-22T17:40:00.923Z,3.85
2023-05-22T17:42:27.772Z,3.85
2023-05-22T17:44:54.548Z,3.92
2023-05-22T17:47:21.481Z,3.80
2023-05-22T17:49:48.421Z,8.10
2023-05-22T17:52:15.242Z,5.75
2023-05-22T17:54:41.986Z,4.18
2023-05-22T17:57:08.757Z,5.13
2023-05-22T17:59:36.688Z,3.63
2023-05-22T18:02:04.839Z,4.13
2023-05-22T18:04:31.651Z,3.95
2023-05-22T18:06:58.344Z,8.50
2023-05-22T18:09:25.206Z,7.72
2023-05-22T18:11:53.092Z,9.00
2023-05-22T18:14:20.112Z,13.07
2023-05-22T18:16:49.950Z,15.30
2023-05-22T18:19:16.687Z,21.80
2023-05-22T18:21:43.629Z,17.85
2023-05-22T18:24:10.355Z,16.65
2023-05-22T18:26:37.076Z,15.50
2023-05-22T18:29:03.936Z,17.77
2023-05-22T18:31:30.872Z,13.73
2023-05-22T18:33:57.700Z,15.77
2023-05-22T18:36:24.608Z,8.60
2023-05-22T18:38:51.360Z,11.52
2023-05-22T18:41:18.094Z,11.50
2023-05-22T18:43:44.862Z,9.82
2023-05-22T18:46:11.657Z,7.30
2023-05-22T18:48:38.416Z,8.18
2023-05-22T18:51:05.665Z,9.23
2023-05-22T18:53:32.574Z,9.65
2023-05-22T18:55:59.302Z,11.68
2023-05-22T18:58:26.780Z,14.50
2023-05-22T19:00:55.749Z,10.43
2023-05-22T19:03:22.706Z,8.80
2023-05-22T19:05:49.634Z,10.70
2023-05-22T19:08:16.572Z,6.45
2023-05-22T19:10:43.476Z,7.38
2023-05-22T19:13:10.353Z,5.80
2023-05-22T19:15:38.392Z,6.32
2023-05-22T19:18:05.492Z,8.63
2023-05-22T19:20:32.334Z,5.53
2023-05-22T19:22:59.132Z,8.55
2023-05-22T19:25:25.957Z,11.43
2023-05-22T19:27:52.902Z,13.73
2023-05-22T19:30:21.923Z,11.32
2023-05-22T19:32:55.614Z,10.15
2023-05-22T19:35:22.938Z,13.90
2023-05-22T19:37:50.259Z,7.88
2023-05-22T19:40:17.727Z,7.95
2023-05-22T19:42:44.533Z,21.27
2023-05-22T19:45:11.355Z,12.23
2023-05-22T19:47:38.106Z,7.38
2023-05-22T19:50:05.430Z,10.25
2023-05-22T19:52:32.527Z,15.05
2023-05-22T19:54:59.341Z,18.63
2023-05-22T19:57:27.171Z,33.53
2023-05-22T19:59:54.672Z,13.93
2023-05-22T20:02:21.435Z,10.43
2023-05-22T20:04:48.592Z,9.60
2023-05-22T20:07:15.751Z,7.82
2023-05-22T20:09:42.627Z,7.55
2023-05-22T20:12:10.510Z,7.93
2023-05-22T20:14:37.722Z,8.27
2023-05-22T20:17:05.044Z,6.05
2023-05-22T20:19:34.679Z,9.15
2023-05-22T20:24:28.303Z,7.20
2023-05-22T20:26:55.105Z,7.70
2023-05-22T20:29:21.908Z,5.95
2023-05-22T20:31:48.733Z,6.88
2023-05-22T20:34:15.791Z,6.18
2023-05-22T20:36:46.592Z,5.65
2023-05-22T20:39:13.416Z,6.45
2023-05-22T20:41:40.172Z,7.60
2023-05-22T20:44:07.835Z,7.15
2023-05-22T20:46:34.538Z,6.80
2023-05-22T20:49:02.928Z,7.57
2023-05-22T20:51:32.751Z,8.90
2023-05-22T20:53:59.981Z,7.13
2023-05-22T20:56:27.227Z,7.93
2023-05-22T20:58:54.488Z,6.32
2023-05-22T21:01:21.758Z,5.88
2023-05-22T21:03:50.073Z,7.30
2023-05-22T21:06:16.876Z,8.05
2023-05-22T21:08:43.649Z,8.15
2023-05-22T21:11:10.470Z,8.82
2023-05-22T21:13:37.190Z,6.90
2023-05-22T21:16:04.021Z,6.80
2023-05-22T21:18:30.815Z,8.40
2023-05-22T21:20:57.515Z,7.57
2023-05-22T21:23:24.790Z,8.73
2023-05-22T21:25:51.532Z,8.40
2023-05-22T21:28:18.325Z,8.93
2023-05-22T21:30:45.169Z,10.48
2023-05-22T21:33:12.101Z,7.97
2023-05-22T21:35:38.890Z,8.32
2023-05-22T21:38:05.628Z,6.68
2023-05-22T21:40:34.488Z,6.65
2023-05-22T21:43:01.325Z,8.38
2023-05-22T21:45:28.124Z,7.75
2023-05-22T21:47:54.946Z,8.43
2023-05-22T21:50:21.708Z,7.18
2023-05-22T21:52:48.391Z,7.28
2023-05-22T21:55:15.160Z,6.28
2023-05-22T21:57:41.960Z,7.05
2023-05-22T22:00:09.293Z,7.90
2023-05-22T22:02:36.006Z,8.27
2023-05-22T22:05:03.143Z,9.10
2023-05-22T22:07:29.872Z,7.82
2023-05-22T22:09:57.942Z,8.80
2023-05-22T22:12:24.791Z,6.43
2023-05-22T22:14:51.475Z,5.93
2023-05-22T22:17:23.823Z,7.55
2023-05-22T22:19:53.624Z,6.90
2023-05-22T22:24:49.857Z,8.13
2023-05-22T22:27:16.780Z,7.95
2023-05-22T22:29:43.784Z,7.75
2023-05-22T22:32:10.685Z,8.45
2023-05-22T22:34:37.712Z,10.02
2023-05-22T22:37:05.796Z,8.55
2023-05-22T22:39:32.610Z,9.40
2023-05-22T22:42:04.230Z,9.18
2023-05-22T22:44:31.822Z,9.70
2023-05-22T22:46:58.606Z,8.07
2023-05-22T22:49:25.423Z,7.60
2023-05-22T22:51:52.597Z,10.00
2023-05-22T22:54:19.395Z,9.55
2023-05-22T22:56:47.258Z,9.98
2023-05-22T22:59:14.080Z,8.25
2023-05-22T23:01:40.879Z,9.43
2023-05-22T23:04:07.973Z,8.18
2023-05-22T23:06:35.293Z,7.35
2023-05-22T23:09:03.829Z,10.43
2023-05-22T23:11:39.630Z,9.05
2023-05-22T23:14:08.505Z,8.95
2023-05-22T23:16:36.631Z,7.15
2023-05-22T23:19:07.952Z,7.90
2023-05-22T23:21:35.145Z,7.78
2023-05-22T23:24:04.511Z,11.15
2023-05-22T23:26:31.823Z,9.90
2023-05-22T23:28:59.607Z,9.55
2023-05-22T23:31:30.106Z,6.63
2023-05-22T23:33:57.691Z,8.55
2023-05-22T23:36:24.980Z,10.15
2023-05-22T23:38:51.878Z,13.70
2023-05-22T23:41:18.792Z,8.50
2023-05-22T23:43:46.207Z,9.10
2023-05-22T23:46:14.162Z,7.45
2023-05-22T23:48:42.437Z,11.75
2023-05-22T23:51:14.606Z,10.88
2023-05-22T23:53:42.307Z,10.18
2023-05-22T23:56:09.662Z,7.60
2023-05-22T23:58:39.886Z,7.05
